aviador You're here:

LFQB Decoded Metar

TROYES in FRANCE
Report Time2017-08-18 23:30:00
UTC Time2017-08-18 23:49:35
Flight Rules vfr VFR
Wind290° at 05 kt
W.Decomp.*RWY 35: 2.5 kt HW 4.3 kt LCW
RWY 23: 2.5 kt HW 4.3 kt RCW
W.Rank290° ranks 4
Current wind is below 290° avg. (7.1)
Visibility9999 m
Phenomena:N/A
Clouds:Few 049 Hf
Broken 062 Hf
Overcast 086 Hf
Expected CloudBase > 800 ft AGL from Temp-Dew spread
Ceiling6,200 ft
Temp16°C (ISA +2)
Dew Point14°C (88% RH)
AAT15.5°C
QNH1019 hPa
Density Alt607 ft
Elevation387 ft
Report Wrong Elevation
Raw Report
METAR LFQB 182330Z AUTO 29005KT 9999 FEW049 BKN062 OVC086 16/14 Q1019=

Extra information for LFQB:More info

Metar Taf Metar & Taf Last 4 Metars F.Rules Stats Wind Profile Meteogram Temp Stats Airport Information Weather charts Add Link Nearby VenuesMetar ALERT Operation Metar Decoded Social comments